sensor_id;sensor_type;location;lat;lon;timestamp;P1;durP1;ratioP1;P2;durP2;ratioP2
19521;SDS011;9905;52.126;5.596;2023-06-22T00:01:16;5.32;;;5.03;;
19521;SDS011;9905;52.126;5.596;2023-06-22T00:03:45;5.75;;;5.38;;
19521;SDS011;9905;52.126;5.596;2023-06-22T00:06:12;5.28;;;4.95;;
19521;SDS011;9905;52.126;5.596;2023-06-22T00:08:38;5.45;;;5.15;;
19521;SDS011;9905;52.126;5.596;2023-06-22T00:11:05;5.57;;;5.15;;
19521;SDS011;9905;52.126;5.596;2023-06-22T00:13:32;5.88;;;5.47;;
19521;SDS011;9905;52.126;5.596;2023-06-22T00:15:59;5.60;;;5.10;;
19521;SDS011;9905;52.126;5.596;2023-06-22T00:18:26;6.38;;;5.97;;
19521;SDS011;9905;52.126;5.596;2023-06-22T00:20:55;5.55;;;5.15;;
19521;SDS011;9905;52.126;5.596;2023-06-22T00:23:23;6.30;;;5.80;;
19521;SDS011;9905;52.126;5.596;2023-06-22T00:25:50;5.68;;;5.28;;
19521;SDS011;9905;52.126;5.596;2023-06-22T00:28:17;5.78;;;5.28;;
19521;SDS011;9905;52.126;5.596;2023-06-22T00:30:44;5.40;;;5.03;;
19521;SDS011;9905;52.126;5.596;2023-06-22T00:33:11;6.40;;;6.00;;
19521;SDS011;9905;52.126;5.596;2023-06-22T00:35:38;5.88;;;5.38;;
19521;SDS011;9905;52.126;5.596;2023-06-22T00:38:07;6.05;;;5.40;;
19521;SDS011;9905;52.126;5.596;2023-06-22T00:40:34;5.53;;;5.20;;
19521;SDS011;9905;52.126;5.596;2023-06-22T00:43:01;6.35;;;5.85;;
19521;SDS011;9905;52.126;5.596;2023-06-22T00:45:27;5.85;;;5.55;;
19521;SDS011;9905;52.126;5.596;2023-06-22T00:47:56;6.03;;;5.57;;
19521;SDS011;9905;52.126;5.596;2023-06-22T00:50:24;6.68;;;6.05;;
19521;SDS011;9905;52.126;5.596;2023-06-22T00:52:53;5.45;;;5.15;;
19521;SDS011;9905;52.126;5.596;2023-06-22T00:55:24;7.20;;;6.60;;
19521;SDS011;9905;52.126;5.596;2023-06-22T00:57:52;5.43;;;5.10;;
19521;SDS011;9905;52.126;5.596;2023-06-22T01:00:21;5.18;;;4.78;;
19521;SDS011;9905;52.126;5.596;2023-06-22T01:02:50;6.63;;;6.03;;
19521;SDS011;9905;52.126;5.596;2023-06-22T01:05:17;5.95;;;5.55;;
19521;SDS011;9905;52.126;5.596;2023-06-22T01:07:48;6.07;;;5.68;;
19521;SDS011;9905;52.126;5.596;2023-06-22T01:10:24;6.82;;;6.22;;
19521;SDS011;9905;52.126;5.596;2023-06-22T01:12:56;5.88;;;5.50;;
19521;SDS011;9905;52.126;5.596;2023-06-22T01:15:28;6.18;;;5.68;;
19521;SDS011;9905;52.126;5.596;2023-06-22T01:17:58;6.85;;;6.25;;
19521;SDS011;9905;52.126;5.596;2023-06-22T01:20:27;6.03;;;5.63;;
19521;SDS011;9905;52.126;5.596;2023-06-22T01:22:59;6.15;;;5.75;;
19521;SDS011;9905;52.126;5.596;2023-06-22T01:25:36;6.45;;;6.05;;
19521;SDS011;9905;52.126;5.596;2023-06-22T01:28:17;5.95;;;5.43;;
19521;SDS011;9905;52.126;5.596;2023-06-22T01:30:52;6.82;;;6.32;;
19521;SDS011;9905;52.126;5.596;2023-06-22T01:33:28;6.82;;;6.43;;
19521;SDS011;9905;52.126;5.596;2023-06-22T01:35:57;6.90;;;6.38;;
19521;SDS011;9905;52.126;5.596;2023-06-22T01:38:25;6.53;;;6.07;;
19521;SDS011;9905;52.126;5.596;2023-06-22T01:40:54;6.05;;;5.75;;
19521;SDS011;9905;52.126;5.596;2023-06-22T01:43:23;6.43;;;6.00;;
19521;SDS011;9905;52.126;5.596;2023-06-22T01:45:52;6.57;;;6.15;;
19521;SDS011;9905;52.126;5.596;2023-06-22T01:48:20;6.35;;;5.95;;
19521;SDS011;9905;52.126;5.596;2023-06-22T01:50:48;15.93;;;6.70;;
19521;SDS011;9905;52.126;5.596;2023-06-22T01:53:15;6.90;;;6.43;;
19521;SDS011;9905;52.126;5.596;2023-06-22T01:55:42;7.10;;;6.50;;
19521;SDS011;9905;52.126;5.596;2023-06-22T01:58:09;6.65;;;6.15;;
19521;SDS011;9905;52.126;5.596;2023-06-22T02:00:36;6.15;;;5.65;;
19521;SDS011;9905;52.126;5.596;2023-06-22T02:03:08;6.47;;;6.07;;
19521;SDS011;9905;52.126;5.596;2023-06-22T02:05:42;6.32;;;5.93;;
19521;SDS011;9905;52.126;5.596;2023-06-22T02:08:15;6.70;;;6.30;;
19521;SDS011;9905;52.126;5.596;2023-06-22T02:10:46;6.68;;;6.28;;
19521;SDS011;9905;52.126;5.596;2023-06-22T02:13:14;11.00;;;7.50;;
19521;SDS011;9905;52.126;5.596;2023-06-22T02:15:41;6.47;;;6.05;;
19521;SDS011;9905;52.126;5.596;2023-06-22T02:18:10;6.68;;;6.15;;
19521;SDS011;9905;52.126;5.596;2023-06-22T02:20:37;6.93;;;6.43;;
19521;SDS011;9905;52.126;5.596;2023-06-22T02:23:05;7.20;;;6.50;;
19521;SDS011;9905;52.126;5.596;2023-06-22T02:25:33;8.15;;;7.35;;
19521;SDS011;9905;52.126;5.596;2023-06-22T02:28:00;6.43;;;6.00;;
19521;SDS011;9905;52.126;5.596;2023-06-22T02:30:27;7.65;;;7.05;;
19521;SDS011;9905;52.126;5.596;2023-06-22T02:32:54;6.75;;;6.22;;
19521;SDS011;9905;52.126;5.596;2023-06-22T02:35:25;7.97;;;7.32;;
19521;SDS011;9905;52.126;5.596;2023-06-22T02:37:52;7.57;;;6.85;;
19521;SDS011;9905;52.126;5.596;2023-06-22T02:40:19;6.93;;;6.43;;
19521;SDS011;9905;52.126;5.596;2023-06-22T02:42:46;7.72;;;7.18;;
19521;SDS011;9905;52.126;5.596;2023-06-22T02:45:13;7.25;;;6.55;;
19521;SDS011;9905;52.126;5.596;2023-06-22T02:47:40;7.60;;;6.80;;
19521;SDS011;9905;52.126;5.596;2023-06-22T02:50:07;7.53;;;6.95;;
19521;SDS011;9905;52.126;5.596;2023-06-22T02:52:35;8.90;;;6.38;;
19521;SDS011;9905;52.126;5.596;2023-06-22T02:55:04;7.20;;;6.70;;
19521;SDS011;9905;52.126;5.596;2023-06-22T02:57:33;7.55;;;6.97;;
19521;SDS011;9905;52.126;5.596;2023-06-22T03:00:01;8.30;;;7.00;;
19521;SDS011;9905;52.126;5.596;2023-06-22T03:02:31;8.45;;;7.75;;
19521;SDS011;9905;52.126;5.596;2023-06-22T03:04:58;7.95;;;7.35;;
19521;SDS011;9905;52.126;5.596;2023-06-22T03:07:26;8.48;;;7.88;;
19521;SDS011;9905;52.126;5.596;2023-06-22T03:09:56;8.23;;;7.47;;
19521;SDS011;9905;52.126;5.596;2023-06-22T03:12:23;7.93;;;7.35;;
19521;SDS011;9905;52.126;5.596;2023-06-22T03:14:50;7.75;;;7.20;;
19521;SDS011;9905;52.126;5.596;2023-06-22T03:17:17;7.80;;;7.18;;
19521;SDS011;9905;52.126;5.596;2023-06-22T03:19:44;8.23;;;7.43;;
19521;SDS011;9905;52.126;5.596;2023-06-22T03:22:11;7.47;;;6.97;;
19521;SDS011;9905;52.126;5.596;2023-06-22T03:24:40;7.63;;;7.03;;
19521;SDS011;9905;52.126;5.596;2023-06-22T03:27:08;8.48;;;7.88;;
19521;SDS011;9905;52.126;5.596;2023-06-22T03:29:35;8.75;;;8.10;;
19521;SDS011;9905;52.126;5.596;2023-06-22T03:32:01;8.20;;;7.55;;
19521;SDS011;9905;52.126;5.596;2023-06-22T03:34:30;9.32;;;8.63;;
19521;SDS011;9905;52.126;5.596;2023-06-22T03:36:58;9.82;;;8.90;;
19521;SDS011;9905;52.126;5.596;2023-06-22T03:39:25;11.77;;;9.07;;
19521;SDS011;9905;52.126;5.596;2023-06-22T03:41:52;9.32;;;8.68;;
19521;SDS011;9905;52.126;5.596;2023-06-22T03:44:20;9.85;;;8.95;;
19521;SDS011;9905;52.126;5.596;2023-06-22T03:46:47;8.75;;;8.05;;
19521;SDS011;9905;52.126;5.596;2023-06-22T03:49:13;9.93;;;9.10;;
19521;SDS011;9905;52.126;5.596;2023-06-22T03:51:40;10.50;;;9.68;;
19521;SDS011;9905;52.126;5.596;2023-06-22T03:54:07;9.88;;;9.13;;
19521;SDS011;9905;52.126;5.596;2023-06-22T03:56:34;11.23;;;10.15;;
19521;SDS011;9905;52.126;5.596;2023-06-22T03:59:01;10.30;;;9.48;;
19521;SDS011;9905;52.126;5.596;2023-06-22T04:01:29;10.90;;;9.85;;
19521;SDS011;9905;52.126;5.596;2023-06-22T04:03:56;10.88;;;9.82;;
19521;SDS011;9905;52.126;5.596;2023-06-22T04:06:23;11.68;;;10.52;;
19521;SDS011;9905;52.126;5.596;2023-06-22T04:08:50;11.65;;;10.55;;
19521;SDS011;9905;52.126;5.596;2023-06-22T04:11:16;11.25;;;10.15;;
19521;SDS011;9905;52.126;5.596;2023-06-22T04:13:43;12.15;;;10.90;;
19521;SDS011;9905;52.126;5.596;2023-06-22T04:16:10;12.25;;;11.15;;
19521;SDS011;9905;52.126;5.596;2023-06-22T04:18:38;12.05;;;10.85;;
19521;SDS011;9905;52.126;5.596;2023-06-22T04:21:05;16.85;;;12.02;;
19521;SDS011;9905;52.126;5.596;2023-06-22T04:23:32;13.40;;;12.00;;
19521;SDS011;9905;52.126;5.596;2023-06-22T04:25:59;14.60;;;12.27;;
19521;SDS011;9905;52.126;5.596;2023-06-22T04:28:26;14.80;;;12.23;;
19521;SDS011;9905;52.126;5.596;2023-06-22T04:30:52;13.23;;;11.88;;
19521;SDS011;9905;52.126;5.596;2023-06-22T04:33:23;12.82;;;11.73;;
19521;SDS011;9905;52.126;5.596;2023-06-22T04:35:51;14.65;;;13.15;;
19521;SDS011;9905;52.126;5.596;2023-06-22T04:38:18;13.35;;;12.05;;
19521;SDS011;9905;52.126;5.596;2023-06-22T04:40:46;17.50;;;13.73;;
19521;SDS011;9905;52.126;5.596;2023-06-22T04:43:13;15.52;;;13.77;;
19521;SDS011;9905;52.126;5.596;2023-06-22T04:45:40;18.48;;;13.75;;
19521;SDS011;9905;52.126;5.596;2023-06-22T04:48:07;15.23;;;13.63;;
19521;SDS011;9905;52.126;5.596;2023-06-22T04:50:36;18.35;;;15.20;;
19521;SDS011;9905;52.126;5.596;2023-06-22T04:53:05;17.23;;;15.43;;
19521;SDS011;9905;52.126;5.596;2023-06-22T04:55:32;21.25;;;15.27;;
19521;SDS011;9905;52.126;5.596;2023-06-22T04:57:59;22.38;;;16.65;;
19521;SDS011;9905;52.126;5.596;2023-06-22T05:00:30;20.08;;;17.25;;
19521;SDS011;9905;52.126;5.596;2023-06-22T05:02:57;19.83;;;16.80;;
19521;SDS011;9905;52.126;5.596;2023-06-22T05:05:24;21.33;;;17.73;;
19521;SDS011;9905;52.126;5.596;2023-06-22T05:07:51;26.50;;;20.13;;
19521;SDS011;9905;52.126;5.596;2023-06-22T05:10:21;21.77;;;18.60;;
19521;SDS011;9905;52.126;5.596;2023-06-22T05:12:48;22.42;;;19.73;;
19521;SDS011;9905;52.126;5.596;2023-06-22T05:15:14;24.08;;;19.55;;
19521;SDS011;9905;52.126;5.596;2023-06-22T05:17:41;32.80;;;21.98;;
19521;SDS011;9905;52.126;5.596;2023-06-22T05:20:09;27.77;;;20.50;;
19521;SDS011;9905;52.126;5.596;2023-06-22T05:22:36;27.30;;;22.08;;
19521;SDS011;9905;52.126;5.596;2023-06-22T05:25:04;28.88;;;22.30;;
19521;SDS011;9905;52.126;5.596;2023-06-22T05:27:33;26.55;;;21.20;;
19521;SDS011;9905;52.126;5.596;2023-06-22T05:30:04;28.50;;;22.90;;
19521;SDS011;9905;52.126;5.596;2023-06-22T05:32:32;28.58;;;22.55;;
19521;SDS011;9905;52.126;5.596;2023-06-22T05:34:59;32.90;;;23.33;;
19521;SDS011;9905;52.126;5.596;2023-06-22T05:37:26;28.95;;;22.00;;
19521;SDS011;9905;52.126;5.596;2023-06-22T05:39:54;29.92;;;22.50;;
19521;SDS011;9905;52.126;5.596;2023-06-22T05:42:22;29.20;;;23.45;;
19521;SDS011;9905;52.126;5.596;2023-06-22T05:44:51;30.58;;;23.17;;
19521;SDS011;9905;52.126;5.596;2023-06-22T05:47:19;28.70;;;22.85;;
19521;SDS011;9905;52.126;5.596;2023-06-22T05:49:45;27.73;;;23.05;;
19521;SDS011;9905;52.126;5.596;2023-06-22T05:52:12;27.27;;;22.67;;
19521;SDS011;9905;52.126;5.596;2023-06-22T05:54:39;31.17;;;23.60;;
19521;SDS011;9905;52.126;5.596;2023-06-22T05:57:06;31.42;;;23.08;;
19521;SDS011;9905;52.126;5.596;2023-06-22T05:59:33;29.15;;;22.98;;
19521;SDS011;9905;52.126;5.596;2023-06-22T06:02:01;25.17;;;21.98;;
19521;SDS011;9905;52.126;5.596;2023-06-22T06:04:30;32.22;;;23.05;;
19521;SDS011;9905;52.126;5.596;2023-06-22T06:06:56;29.02;;;22.33;;
19521;SDS011;9905;52.126;5.596;2023-06-22T06:09:23;26.80;;;21.40;;
19521;SDS011;9905;52.126;5.596;2023-06-22T06:11:50;25.55;;;21.25;;
19521;SDS011;9905;52.126;5.596;2023-06-22T06:14:17;22.50;;;19.10;;
19521;SDS011;9905;52.126;5.596;2023-06-22T06:16:43;24.23;;;18.85;;
19521;SDS011;9905;52.126;5.596;2023-06-22T06:19:11;23.40;;;19.05;;
19521;SDS011;9905;52.126;5.596;2023-06-22T06:21:38;22.42;;;19.23;;
19521;SDS011;9905;52.126;5.596;2023-06-22T06:24:05;22.00;;;19.33;;
19521;SDS011;9905;52.126;5.596;2023-06-22T06:26:32;21.92;;;19.15;;
19521;SDS011;9905;52.126;5.596;2023-06-22T06:29:00;20.85;;;18.27;;
19521;SDS011;9905;52.126;5.596;2023-06-22T06:31:28;22.90;;;19.80;;
19521;SDS011;9905;52.126;5.596;2023-06-22T06:33:55;24.02;;;19.27;;
19521;SDS011;9905;52.126;5.596;2023-06-22T06:36:23;23.95;;;18.95;;
19521;SDS011;9905;52.126;5.596;2023-06-22T06:38:50;21.45;;;18.25;;
19521;SDS011;9905;52.126;5.596;2023-06-22T06:41:17;21.27;;;17.25;;
19521;SDS011;9905;52.126;5.596;2023-06-22T06:43:45;20.08;;;17.70;;
19521;SDS011;9905;52.126;5.596;2023-06-22T06:46:12;21.45;;;17.17;;
19521;SDS011;9905;52.126;5.596;2023-06-22T06:48:38;22.38;;;19.98;;
19521;SDS011;9905;52.126;5.596;2023-06-22T06:51:05;22.10;;;18.38;;
19521;SDS011;9905;52.126;5.596;2023-06-22T06:53:35;20.50;;;18.35;;
19521;SDS011;9905;52.126;5.596;2023-06-22T06:56:02;18.90;;;16.98;;
19521;SDS011;9905;52.126;5.596;2023-06-22T06:58:30;20.10;;;16.55;;
19521;SDS011;9905;52.126;5.596;2023-06-22T07:00:57;19.20;;;16.98;;
19521;SDS011;9905;52.126;5.596;2023-06-22T07:03:24;19.02;;;16.45;;
19521;SDS011;9905;52.126;5.596;2023-06-22T07:05:51;17.17;;;15.38;;
19521;SDS011;9905;52.126;5.596;2023-06-22T07:08:18;17.10;;;15.15;;
19521;SDS011;9905;52.126;5.596;2023-06-22T07:10:46;17.17;;;15.38;;
19521;SDS011;9905;52.126;5.596;2023-06-22T07:13:13;16.00;;;14.35;;
19521;SDS011;9905;52.126;5.596;2023-06-22T07:15:39;15.57;;;13.95;;
19521;SDS011;9905;52.126;5.596;2023-06-22T07:18:07;14.57;;;12.88;;
19521;SDS011;9905;52.126;5.596;2023-06-22T07:20:34;14.60;;;13.10;;
19521;SDS011;9905;52.126;5.596;2023-06-22T07:23:00;14.00;;;12.35;;
19521;SDS011;9905;52.126;5.596;2023-06-22T07:25:27;13.73;;;12.40;;
19521;SDS011;9905;52.126;5.596;2023-06-22T07:27:59;13.13;;;11.90;;
19521;SDS011;9905;52.126;5.596;2023-06-22T07:30:27;11.73;;;10.70;;
19521;SDS011;9905;52.126;5.596;2023-06-22T07:32:54;13.32;;;12.13;;
19521;SDS011;9905;52.126;5.596;2023-06-22T07:35:23;12.65;;;11.50;;
19521;SDS011;9905;52.126;5.596;2023-06-22T07:37:50;13.00;;;11.80;;
19521;SDS011;9905;52.126;5.596;2023-06-22T07:40:17;13.20;;;11.90;;
19521;SDS011;9905;52.126;5.596;2023-06-22T07:42:44;12.13;;;10.93;;
19521;SDS011;9905;52.126;5.596;2023-06-22T07:45:14;13.50;;;11.82;;
19521;SDS011;9905;52.126;5.596;2023-06-22T07:47:41;10.30;;;9.38;;
19521;SDS011;9905;52.126;5.596;2023-06-22T07:50:08;12.02;;;10.85;;
19521;SDS011;9905;52.126;5.596;2023-06-22T07:52:36;12.23;;;11.02;;
19521;SDS011;9905;52.126;5.596;2023-06-22T07:55:03;12.00;;;10.35;;
19521;SDS011;9905;52.126;5.596;2023-06-22T07:57:30;11.10;;;10.05;;
19521;SDS011;9905;52.126;5.596;2023-06-22T07:59:58;11.50;;;10.23;;
19521;SDS011;9905;52.126;5.596;2023-06-22T08:02:27;10.77;;;9.88;;
19521;SDS011;9905;52.126;5.596;2023-06-22T08:04:54;10.48;;;9.45;;
19521;SDS011;9905;52.126;5.596;2023-06-22T08:07:20;8.93;;;8.15;;
19521;SDS011;9905;52.126;5.596;2023-06-22T08:09:47;9.95;;;9.05;;
19521;SDS011;9905;52.126;5.596;2023-06-22T08:12:15;9.10;;;8.23;;
19521;SDS011;9905;52.126;5.596;2023-06-22T08:14:42;9.77;;;8.88;;
19521;SDS011;9905;52.126;5.596;2023-06-22T08:17:11;8.55;;;7.85;;
19521;SDS011;9905;52.126;5.596;2023-06-22T08:19:39;8.50;;;7.82;;
19521;SDS011;9905;52.126;5.596;2023-06-22T08:22:06;9.35;;;8.27;;
19521;SDS011;9905;52.126;5.596;2023-06-22T08:24:33;8.57;;;7.88;;
19521;SDS011;9905;52.126;5.596;2023-06-22T08:27:00;8.80;;;8.10;;
19521;SDS011;9905;52.126;5.596;2023-06-22T08:29:27;7.57;;;6.80;;
19521;SDS011;9905;52.126;5.596;2023-06-22T08:31:54;7.50;;;6.95;;
19521;SDS011;9905;52.126;5.596;2023-06-22T08:34:20;10.02;;;8.07;;
19521;SDS011;9905;52.126;5.596;2023-06-22T08:36:51;8.40;;;7.80;;
19521;SDS011;9905;52.126;5.596;2023-06-22T08:39:18;6.95;;;6.35;;
19521;SDS011;9905;52.126;5.596;2023-06-22T08:41:46;5.95;;;5.60;;
19521;SDS011;9905;52.126;5.596;2023-06-22T08:44:13;5.43;;;5.13;;
19521;SDS011;9905;52.126;5.596;2023-06-22T08:46:40;5.35;;;4.85;;
19521;SDS011;9905;52.126;5.596;2023-06-22T08:49:07;4.60;;;4.30;;
19521;SDS011;9905;52.126;5.596;2023-06-22T08:51:35;5.55;;;5.15;;
19521;SDS011;9905;52.126;5.596;2023-06-22T08:54:03;5.25;;;4.90;;
19521;SDS011;9905;52.126;5.596;2023-06-22T08:56:30;5.38;;;5.07;;
19521;SDS011;9905;52.126;5.596;2023-06-22T08:58:57;5.50;;;5.10;;
19521;SDS011;9905;52.126;5.596;2023-06-22T09:01:25;5.10;;;4.80;;
19521;SDS011;9905;52.126;5.596;2023-06-22T09:03:52;4.90;;;4.50;;
19521;SDS011;9905;52.126;5.596;2023-06-22T09:06:22;5.32;;;5.03;;
19521;SDS011;9905;52.126;5.596;2023-06-22T09:08:49;4.40;;;4.10;;
19521;SDS011;9905;52.126;5.596;2023-06-22T09:11:17;4.30;;;4.00;;
19521;SDS011;9905;52.126;5.596;2023-06-22T09:13:44;4.68;;;4.38;;
19521;SDS011;9905;52.126;5.596;2023-06-22T09:16:11;4.85;;;4.55;;
19521;SDS011;9905;52.126;5.596;2023-06-22T09:18:38;4.38;;;4.07;;
19521;SDS011;9905;52.126;5.596;2023-06-22T09:21:04;4.57;;;4.28;;
19521;SDS011;9905;52.126;5.596;2023-06-22T09:23:31;5.40;;;5.05;;
19521;SDS011;9905;52.126;5.596;2023-06-22T09:25:58;5.47;;;5.05;;
19521;SDS011;9905;52.126;5.596;2023-06-22T09:28:26;5.00;;;4.60;;
19521;SDS011;9905;52.126;5.596;2023-06-22T09:30:53;5.30;;;4.35;;
19521;SDS011;9905;52.126;5.596;2023-06-22T09:33:24;4.80;;;4.40;;
19521;SDS011;9905;52.126;5.596;2023-06-22T09:35:51;4.60;;;4.07;;
19521;SDS011;9905;52.126;5.596;2023-06-22T09:38:18;5.15;;;4.80;;
19521;SDS011;9905;52.126;5.596;2023-06-22T09:40:44;4.88;;;4.55;;
19521;SDS011;9905;52.126;5.596;2023-06-22T09:43:11;4.07;;;3.83;;
19521;SDS011;9905;52.126;5.596;2023-06-22T09:45:39;4.63;;;4.32;;
19521;SDS011;9905;52.126;5.596;2023-06-22T09:48:06;4.45;;;4.15;;
19521;SDS011;9905;52.126;5.596;2023-06-22T09:50:34;4.20;;;3.90;;
19521;SDS011;9905;52.126;5.596;2023-06-22T09:53:01;4.85;;;4.40;;
19521;SDS011;9905;52.126;5.596;2023-06-22T09:55:28;4.60;;;4.30;;
19521;SDS011;9905;52.126;5.596;2023-06-22T09:57:55;4.80;;;4.50;;
19521;SDS011;9905;52.126;5.596;2023-06-22T10:00:22;4.97;;;4.57;;
19521;SDS011;9905;52.126;5.596;2023-06-22T10:02:50;4.35;;;4.05;;
19521;SDS011;9905;52.126;5.596;2023-06-22T10:05:17;5.00;;;4.60;;
19521;SDS011;9905;52.126;5.596;2023-06-22T10:07:43;4.00;;;3.80;;
19521;SDS011;9905;52.126;5.596;2023-06-22T10:10:10;5.10;;;4.63;;
19521;SDS011;9905;52.126;5.596;2023-06-22T10:12:40;4.43;;;4.13;;
19521;SDS011;9905;52.126;5.596;2023-06-22T10:15:08;4.50;;;4.18;;
19521;SDS011;9905;52.126;5.596;2023-06-22T10:17:35;4.18;;;3.78;;
19521;SDS011;9905;52.126;5.596;2023-06-22T10:20:04;5.50;;;5.03;;
19521;SDS011;9905;52.126;5.596;2023-06-22T10:22:36;6.57;;;4.95;;
19521;SDS011;9905;52.126;5.596;2023-06-22T10:25:03;5.13;;;4.82;;
19521;SDS011;9905;52.126;5.596;2023-06-22T10:27:31;5.55;;;5.15;;
19521;SDS011;9905;52.126;5.596;2023-06-22T10:29:57;6.03;;;5.60;;
19521;SDS011;9905;52.126;5.596;2023-06-22T10:32:24;5.47;;;4.97;;
19521;SDS011;9905;52.126;5.596;2023-06-22T10:34:53;4.93;;;4.63;;
19521;SDS011;9905;52.126;5.596;2023-06-22T10:37:21;5.82;;;5.43;;
19521;SDS011;9905;52.126;5.596;2023-06-22T10:39:48;5.53;;;5.13;;
19521;SDS011;9905;52.126;5.596;2023-06-22T10:42:15;5.68;;;5.28;;
19521;SDS011;9905;52.126;5.596;2023-06-22T10:44:42;5.20;;;4.82;;
19521;SDS011;9905;52.126;5.596;2023-06-22T10:47:09;5.30;;;4.90;;
19521;SDS011;9905;52.126;5.596;2023-06-22T10:49:37;4.68;;;4.28;;
19521;SDS011;9905;52.126;5.596;2023-06-22T10:52:04;5.70;;;5.20;;
19521;SDS011;9905;52.126;5.596;2023-06-22T10:54:33;5.10;;;4.68;;
19521;SDS011;9905;52.126;5.596;2023-06-22T10:57:00;5.30;;;4.97;;
19521;SDS011;9905;52.126;5.596;2023-06-22T10:59:27;5.07;;;4.78;;
19521;SDS011;9905;52.126;5.596;2023-06-22T11:01:54;5.03;;;4.55;;
19521;SDS011;9905;52.126;5.596;2023-06-22T11:04:21;4.97;;;4.57;;
19521;SDS011;9905;52.126;5.596;2023-06-22T11:06:48;5.63;;;5.10;;
19521;SDS011;9905;52.126;5.596;2023-06-22T11:09:15;5.60;;;5.20;;
19521;SDS011;9905;52.126;5.596;2023-06-22T11:11:47;5.28;;;4.82;;
19521;SDS011;9905;52.126;5.596;2023-06-22T11:14:13;5.15;;;4.78;;
19521;SDS011;9905;52.126;5.596;2023-06-22T11:16:40;5.15;;;4.75;;
19521;SDS011;9905;52.126;5.596;2023-06-22T11:19:07;5.78;;;5.38;;
19521;SDS011;9905;52.126;5.596;2023-06-22T11:21:34;5.00;;;4.70;;
19521;SDS011;9905;52.126;5.596;2023-06-22T11:24:01;4.95;;;4.65;;
19521;SDS011;9905;52.126;5.596;2023-06-22T11:26:28;5.07;;;4.78;;
19521;SDS011;9905;52.126;5.596;2023-06-22T11:28:56;5.07;;;4.68;;
19521;SDS011;9905;52.126;5.596;2023-06-22T11:31:23;4.90;;;4.57;;
19521;SDS011;9905;52.126;5.596;2023-06-22T11:33:50;5.22;;;4.93;;
19521;SDS011;9905;52.126;5.596;2023-06-22T11:36:17;5.68;;;5.30;;
19521;SDS011;9905;52.126;5.596;2023-06-22T11:38:44;6.03;;;5.38;;
19521;SDS011;9905;52.126;5.596;2023-06-22T11:41:11;6.53;;;6.10;;
19521;SDS011;9905;52.126;5.596;2023-06-22T11:43:37;6.20;;;5.80;;
19521;SDS011;9905;52.126;5.596;2023-06-22T11:46:06;6.47;;;5.93;;
19521;SDS011;9905;52.126;5.596;2023-06-22T11:48:32;6.68;;;6.28;;
19521;SDS011;9905;52.126;5.596;2023-06-22T11:50:59;6.53;;;6.13;;
19521;SDS011;9905;52.126;5.596;2023-06-22T11:53:27;5.93;;;5.53;;
19521;SDS011;9905;52.126;5.596;2023-06-22T11:55:55;6.53;;;6.10;;
19521;SDS011;9905;52.126;5.596;2023-06-22T11:58:22;6.47;;;5.60;;
19521;SDS011;9905;52.126;5.596;2023-06-22T12:00:49;6.78;;;6.28;;
19521;SDS011;9905;52.126;5.596;2023-06-22T12:03:18;6.32;;;5.93;;
19521;SDS011;9905;52.126;5.596;2023-06-22T12:05:46;6.85;;;6.22;;
19521;SDS011;9905;52.126;5.596;2023-06-22T12:08:13;7.07;;;6.43;;
19521;SDS011;9905;52.126;5.596;2023-06-22T12:10:40;6.90;;;6.40;;
19521;SDS011;9905;52.126;5.596;2023-06-22T12:13:06;6.82;;;6.35;;
19521;SDS011;9905;52.126;5.596;2023-06-22T12:15:33;6.28;;;5.88;;
19521;SDS011;9905;52.126;5.596;2023-06-22T12:18:00;7.15;;;6.55;;
19521;SDS011;9905;52.126;5.596;2023-06-22T12:20:29;7.55;;;7.00;;
19521;SDS011;9905;52.126;5.596;2023-06-22T12:22:56;7.47;;;6.50;;
19521;SDS011;9905;52.126;5.596;2023-06-22T12:25:23;7.00;;;6.32;;
19521;SDS011;9905;52.126;5.596;2023-06-22T12:27:50;9.30;;;7.47;;
19521;SDS011;9905;52.126;5.596;2023-06-22T12:30:17;8.75;;;7.20;;
19521;SDS011;9905;52.126;5.596;2023-06-22T12:32:44;7.10;;;6.53;;
19521;SDS011;9905;52.126;5.596;2023-06-22T12:35:10;7.53;;;6.25;;
19521;SDS011;9905;52.126;5.596;2023-06-22T12:37:40;6.97;;;6.28;;
19521;SDS011;9905;52.126;5.596;2023-06-22T12:40:07;7.70;;;7.10;;
19521;SDS011;9905;52.126;5.596;2023-06-22T12:42:35;7.85;;;7.22;;
19521;SDS011;9905;52.126;5.596;2023-06-22T12:45:02;7.22;;;6.65;;
19521;SDS011;9905;52.126;5.596;2023-06-22T12:47:29;9.10;;;8.27;;
19521;SDS011;9905;52.126;5.596;2023-06-22T12:49:56;10.63;;;8.85;;
19521;SDS011;9905;52.126;5.596;2023-06-22T12:52:23;8.57;;;7.78;;
19521;SDS011;9905;52.126;5.596;2023-06-22T12:54:51;10.18;;;9.13;;
19521;SDS011;9905;52.126;5.596;2023-06-22T12:57:19;8.30;;;7.68;;
19521;SDS011;9905;52.126;5.596;2023-06-22T12:59:46;7.88;;;7.38;;
19521;SDS011;9905;52.126;5.596;2023-06-22T13:02:13;9.88;;;8.65;;
19521;SDS011;9905;52.126;5.596;2023-06-22T13:04:39;10.10;;;9.10;;
19521;SDS011;9905;52.126;5.596;2023-06-22T13:07:08;9.40;;;8.60;;
19521;SDS011;9905;52.126;5.596;2023-06-22T13:09:35;8.30;;;7.50;;
19521;SDS011;9905;52.126;5.596;2023-06-22T13:12:04;9.55;;;8.77;;
19521;SDS011;9905;52.126;5.596;2023-06-22T13:14:31;7.82;;;7.32;;
19521;SDS011;9905;52.126;5.596;2023-06-22T13:16:58;8.05;;;7.47;;
19521;SDS011;9905;52.126;5.596;2023-06-22T13:19:25;8.50;;;7.60;;
19521;SDS011;9905;52.126;5.596;2023-06-22T13:21:54;9.90;;;9.20;;
19521;SDS011;9905;52.126;5.596;2023-06-22T13:24:20;9.13;;;8.35;;
19521;SDS011;9905;52.126;5.596;2023-06-22T13:26:47;9.05;;;8.30;;
19521;SDS011;9905;52.126;5.596;2023-06-22T13:29:15;10.75;;;9.85;;
19521;SDS011;9905;52.126;5.596;2023-06-22T13:31:42;11.00;;;9.85;;
19521;SDS011;9905;52.126;5.596;2023-06-22T13:34:09;13.23;;;9.85;;
19521;SDS011;9905;52.126;5.596;2023-06-22T13:36:36;9.65;;;8.85;;
19521;SDS011;9905;52.126;5.596;2023-06-22T13:39:02;10.85;;;9.98;;
19521;SDS011;9905;52.126;5.596;2023-06-22T13:41:29;12.82;;;11.73;;
19521;SDS011;9905;52.126;5.596;2023-06-22T13:43:57;10.60;;;9.75;;
19521;SDS011;9905;52.126;5.596;2023-06-22T13:46:25;11.57;;;10.32;;
19521;SDS011;9905;52.126;5.596;2023-06-22T13:48:52;11.50;;;10.48;;
19521;SDS011;9905;52.126;5.596;2023-06-22T13:51:19;11.10;;;10.10;;
19521;SDS011;9905;52.126;5.596;2023-06-22T13:53:45;11.80;;;10.60;;
19521;SDS011;9905;52.126;5.596;2023-06-22T13:56:12;11.27;;;10.38;;
19521;SDS011;9905;52.126;5.596;2023-06-22T13:58:39;12.30;;;11.20;;
19521;SDS011;9905;52.126;5.596;2023-06-22T14:01:06;10.00;;;9.25;;
19521;SDS011;9905;52.126;5.596;2023-06-22T14:03:34;11.40;;;10.40;;
19521;SDS011;9905;52.126;5.596;2023-06-22T14:06:01;11.88;;;10.77;;
19521;SDS011;9905;52.126;5.596;2023-06-22T14:08:29;10.43;;;9.57;;
19521;SDS011;9905;52.126;5.596;2023-06-22T14:10:56;11.50;;;10.35;;
19521;SDS011;9905;52.126;5.596;2023-06-22T14:13:22;10.13;;;9.30;;
19521;SDS011;9905;52.126;5.596;2023-06-22T14:15:49;11.48;;;10.13;;
19521;SDS011;9905;52.126;5.596;2023-06-22T14:18:17;11.02;;;10.05;;
19521;SDS011;9905;52.126;5.596;2023-06-22T14:20:45;10.93;;;9.93;;
19521;SDS011;9905;52.126;5.596;2023-06-22T14:23:12;10.55;;;9.77;;
19521;SDS011;9905;52.126;5.596;2023-06-22T14:25:39;9.82;;;9.02;;
19521;SDS011;9905;52.126;5.596;2023-06-22T14:28:06;10.80;;;9.80;;
19521;SDS011;9905;52.126;5.596;2023-06-22T14:30:33;10.40;;;9.50;;
19521;SDS011;9905;52.126;5.596;2023-06-22T14:33:00;10.43;;;9.63;;
19521;SDS011;9905;52.126;5.596;2023-06-22T14:35:27;10.25;;;9.23;;
19521;SDS011;9905;52.126;5.596;2023-06-22T14:37:55;9.80;;;9.00;;
19521;SDS011;9905;52.126;5.596;2023-06-22T14:40:22;9.65;;;8.73;;
19521;SDS011;9905;52.126;5.596;2023-06-22T14:42:48;9.32;;;8.63;;
19521;SDS011;9905;52.126;5.596;2023-06-22T14:45:15;9.80;;;8.93;;
19521;SDS011;9905;52.126;5.596;2023-06-22T14:47:42;8.52;;;7.93;;
19521;SDS011;9905;52.126;5.596;2023-06-22T14:50:09;9.05;;;8.43;;
19521;SDS011;9905;52.126;5.596;2023-06-22T14:52:36;9.63;;;8.90;;
19521;SDS011;9905;52.126;5.596;2023-06-22T14:55:05;10.18;;;9.32;;